Time;durP1;ratioP1;P1;durP2;ratioP2;P2;SDS_P1;SDS_P2;PMS_P1;PMS_P2;Temp;Humidity;BMP_temperature;BMP_pressure;BME280_temperature;BME280_humidity;BME280_pressure;Samples;Min_cycle;Max_cycle;Signal;HPM_P1;HPM_P2
2022/05/08 00:01:35;;;;;;;6.15;4.22;;;20.80;50.00;19.90;102273.00;;;;5032229;28;20483;-67
2022/05/08 00:04:21;;;;;;;7.88;4.38;;;20.80;50.00;19.90;102270.00;;;;5030978;28;20566;-66
2022/05/08 00:07:07;;;;;;;8.82;3.95;;;20.80;50.00;19.90;102267.00;;;;5032235;28;20040;-67
2022/05/08 00:09:53;;;;;;;6.18;4.20;;;20.70;50.00;19.90;102275.00;;;;5029644;28;20490;-66
2022/05/08 00:12:39;;;;;;;6.03;3.60;;;20.70;50.00;19.90;102261.00;;;;5046053;28;20086;-66
2022/05/08 00:15:26;;;;;;;7.35;4.30;;;20.70;49.90;19.90;102262.00;;;;5036683;28;20546;-66
2022/05/08 00:18:12;;;;;;;5.30;3.80;;;20.70;49.90;19.90;102265.00;;;;5045761;28;20048;-66
2022/05/08 00:20:58;;;;;;;5.45;4.15;;;20.80;49.90;19.90;102263.00;;;;5042313;28;20099;-67
2022/05/08 00:23:44;;;;;;;5.60;3.85;;;20.70;49.90;19.90;102266.00;;;;5025466;28;20088;-66
2022/05/08 00:26:30;;;;;;;4.35;3.63;;;20.70;49.90;19.90;102263.00;;;;5042336;28;20036;-67
2022/05/08 00:29:16;;;;;;;6.10;3.78;;;20.70;49.80;19.80;102258.00;;;;5042538;28;20043;-67
2022/05/08 00:32:02;;;;;;;6.28;4.15;;;20.70;49.80;19.80;102269.00;;;;5050076;28;20048;-67
2022/05/08 00:34:48;;;;;;;8.48;3.75;;;20.70;49.80;19.80;102272.00;;;;5028671;28;20067;-66
2022/05/08 00:37:34;;;;;;;4.68;3.72;;;20.70;49.80;19.80;102279.00;;;;5043112;28;20041;-67
2022/05/08 00:40:21;;;;;;;5.50;3.80;;;20.70;49.80;19.80;102279.00;;;;5036967;28;20049;-66
2022/05/08 00:43:34;;;;;;;6.97;4.10;;;20.70;49.80;19.80;102285.00;;;;5040138;28;20033;-67
2022/05/08 00:46:20;;;;;;;6.13;3.90;;;20.70;49.80;19.80;102283.00;;;;5023767;28;20108;-67
2022/05/08 00:49:07;;;;;;;5.72;3.75;;;20.70;49.80;19.80;102284.00;;;;5035891;28;20383;-66
2022/05/08 00:51:53;;;;;;;5.90;3.40;;;20.70;49.80;19.80;102275.00;;;;5034041;28;20321;-67
2022/05/08 00:54:39;;;;;;;4.75;3.97;;;20.70;49.90;19.80;102271.00;;;;5022926;28;20403;-66
2022/05/08 00:57:25;;;;;;;6.43;4.00;;;20.60;49.70;19.80;102276.00;;;;5024940;28;20041;-67
2022/05/08 01:00:11;;;;;;;4.70;3.50;;;20.70;49.80;19.80;102265.00;;;;5033132;28;20502;-67
2022/05/08 01:02:57;;;;;;;6.65;3.90;;;20.60;49.80;19.70;102277.00;;;;5032049;28;20052;-67
2022/05/08 01:05:43;;;;;;;5.38;3.67;;;20.60;49.80;19.70;102270.00;;;;5039954;28;20124;-66
2022/05/08 01:08:29;;;;;;;4.65;3.67;;;20.60;49.80;19.70;102267.00;;;;5005678;28;20039;-67
2022/05/08 01:11:16;;;;;;;4.03;3.42;;;20.60;49.80;19.70;102277.00;;;;5007389;28;20115;-66
2022/05/08 01:14:02;;;;;;;7.07;3.58;;;20.60;49.80;19.70;102284.00;;;;5026555;28;20485;-67
2022/05/08 01:16:48;;;;;;;6.20;3.20;;;20.60;49.80;19.70;102292.00;;;;5035924;28;20060;-66
2022/05/08 01:19:34;;;;;;;6.72;3.20;;;20.50;49.60;19.70;102300.00;;;;5036185;28;20407;-66
2022/05/08 01:22:20;;;;;;;5.03;2.90;;;20.60;49.50;19.70;102285.00;;;;5037114;28;20045;-67
2022/05/08 01:25:06;;;;;;;7.53;2.90;;;20.50;49.40;19.70;102284.00;;;;5034044;28;20304;-66
2022/05/08 01:27:52;;;;;;;4.68;2.47;;;20.50;49.40;19.70;102280.00;;;;5024234;28;20049;-66
2022/05/08 01:30:47;;;;;;;6.00;2.58;;;20.50;49.40;19.70;102284.00;;;;5038248;28;20393;-66
2022/05/08 01:33:33;;;;;;;4.88;2.55;;;20.50;49.30;19.70;102276.00;;;;5021368;28;20235;-67
2022/05/08 01:36:19;;;;;;;8.20;2.55;;;20.50;49.20;19.70;102285.00;;;;5037227;28;20064;-66
2022/05/08 01:39:05;;;;;;;10.10;2.47;;;20.50;49.20;19.70;102287.00;;;;5030882;28;20048;-66
2022/05/08 01:41:51;;;;;;;6.97;2.25;;;20.50;49.10;19.60;102279.00;;;;5020683;28;20486;-66
2022/05/08 01:44:37;;;;;;;4.53;2.50;;;20.50;49.00;19.70;102293.00;;;;5036274;28;20034;-66
2022/05/08 01:50:29;;;;;;;7.13;2.38;;;20.50;49.00;19.60;102288.00;;;;5019907;28;20301;-66
2022/05/08 01:53:15;;;;;;;6.32;2.60;;;20.50;49.00;19.60;102295.00;;;;5033214;28;20049;-66
2022/05/08 01:56:05;;;;;;;6.05;1.92;;;20.40;48.90;19.60;102295.00;;;;5032527;28;20053;-67
2022/05/08 01:58:52;;;;;;;9.35;2.78;;;20.50;48.90;19.60;102296.00;;;;5023309;28;20046;-67
2022/05/08 02:01:38;;;;;;;11.00;2.60;;;20.40;48.80;19.60;102296.00;;;;5037707;28;20507;-66
2022/05/08 02:04:24;;;;;;;6.45;2.70;;;20.40;48.90;19.60;102305.00;;;;5023866;28;20037;-67
2022/05/08 02:07:10;;;;;;;7.50;2.08;;;20.50;48.90;19.60;102299.00;;;;5037667;28;20475;-67
2022/05/08 02:09:56;;;;;;;5.65;1.95;;;20.40;48.80;19.60;102300.00;;;;5031913;28;20045;-67
2022/05/08 02:12:43;;;;;;;9.05;2.45;;;20.40;48.80;19.60;102297.00;;;;5037995;28;20527;-66
2022/05/08 02:15:29;;;;;;;6.95;2.00;;;20.40;48.80;19.60;102303.00;;;;5032469;28;20131;-66
2022/05/08 02:18:15;;;;;;;6.05;2.03;;;20.40;48.80;19.60;102298.00;;;;5036975;28;20046;-66
2022/05/08 02:21:01;;;;;;;8.35;2.30;;;20.40;48.80;19.50;102304.00;;;;5032958;28;20042;-67
2022/05/08 02:23:47;;;;;;;10.45;2.03;;;20.40;48.80;19.60;102303.00;;;;5036130;28;20049;-67
2022/05/08 02:26:33;;;;;;;8.98;2.08;;;20.40;48.80;19.50;102302.00;;;;5021171;28;20037;-66
2022/05/08 02:29:19;;;;;;;5.72;1.95;;;20.40;48.80;19.50;102302.00;;;;5035213;28;20044;-66
2022/05/08 02:32:06;;;;;;;10.65;2.42;;;20.40;48.80;19.50;102305.00;;;;5038970;28;20402;-66
2022/05/08 02:34:52;;;;;;;5.63;2.08;;;20.30;48.70;19.50;102303.00;;;;5039170;28;20044;-67
2022/05/08 02:37:41;;;;;;;8.00;1.80;;;20.40;48.70;19.50;102307.00;;;;5038362;28;20044;-67
2022/05/08 02:40:27;;;;;;;6.07;1.90;;;20.30;48.60;19.50;102300.00;;;;5021519;28;20068;-66
2022/05/08 02:43:14;;;;;;;7.70;1.98;;;20.30;48.60;19.50;102302.00;;;;5039395;28;20045;-66
2022/05/08 02:46:02;;;;;;;4.50;1.75;;;20.30;48.60;19.50;102301.00;;;;5036461;28;20052;-66
2022/05/08 02:48:48;;;;;;;6.00;1.95;;;20.30;48.60;19.50;102297.00;;;;5032691;28;20033;-66
2022/05/08 02:51:34;;;;;;;8.88;2.20;;;20.30;48.50;19.50;102295.00;;;;5033208;28;20447;-66
2022/05/08 02:54:20;;;;;;;7.18;2.17;;;20.30;48.50;19.50;102300.00;;;;5035595;28;20045;-66
2022/05/08 03:00:11;;;;;;;7.10;1.77;;;20.30;48.50;19.50;102291.00;;;;5040855;28;20045;-67
2022/05/08 03:02:57;;;;;;;8.98;2.22;;;20.30;48.50;19.50;102299.00;;;;5036225;28;20196;-66
2022/05/08 03:05:45;;;;;;;9.55;2.00;;;20.30;48.50;19.50;102287.00;;;;5044828;28;20503;-66
2022/05/08 03:08:32;;;;;;;10.65;2.63;;;20.30;48.50;19.50;102290.00;;;;5047775;28;20445;-66
2022/05/08 03:11:26;;;;;;;8.65;2.03;;;20.30;48.60;19.40;102290.00;;;;5038545;28;20044;-67
2022/05/08 03:14:12;;;;;;;9.30;2.30;;;20.30;48.50;19.40;102296.00;;;;5048131;28;20052;-66
2022/05/08 03:16:58;;;;;;;5.43;1.75;;;20.20;48.50;19.40;102299.00;;;;5036998;28;20049;-66
2022/05/08 03:19:45;;;;;;;9.57;2.03;;;20.30;48.50;19.40;102298.00;;;;5036174;28;20052;-66
2022/05/08 03:22:31;;;;;;;6.55;2.03;;;20.20;48.50;19.40;102299.00;;;;5030683;28;20044;-66
2022/05/08 03:25:17;;;;;;;5.82;1.60;;;20.20;48.50;19.40;102303.00;;;;5041577;28;20033;-66
2022/05/08 03:28:03;;;;;;;12.80;2.58;;;20.30;48.50;19.40;102300.00;;;;5042137;28;20065;-66
2022/05/08 03:30:49;;;;;;;7.20;2.05;;;20.20;48.40;19.40;102307.00;;;;5033491;28;20562;-66
2022/05/08 03:33:39;;;;;;;6.00;1.73;;;20.20;48.40;19.40;102295.00;;;;5041218;28;20120;-66
2022/05/08 03:36:25;;;;;;;6.30;1.88;;;20.20;48.40;19.40;102300.00;;;;5025422;28;20048;-66
2022/05/08 03:39:13;;;;;;;7.13;2.13;;;20.20;48.30;19.40;102303.00;;;;5039675;28;20410;-66
2022/05/08 03:41:59;;;;;;;7.35;2.10;;;20.20;48.30;19.40;102304.00;;;;5032788;28;20042;-67
2022/05/08 03:44:45;;;;;;;7.75;2.15;;;20.20;48.30;19.40;102298.00;;;;5035811;28;20029;-66
2022/05/08 03:47:31;;;;;;;7.38;2.00;;;20.20;48.30;19.40;102298.00;;;;5037739;28;20040;-66
2022/05/08 03:50:18;;;;;;;6.50;2.00;;;20.20;48.30;19.40;102301.00;;;;5034700;28;20041;-67
2022/05/08 03:53:05;;;;;;;10.43;2.60;;;20.20;48.30;19.40;102310.00;;;;5019944;28;20050;-66
2022/05/08 03:55:51;;;;;;;7.75;1.75;;;20.20;48.30;19.40;102303.00;;;;5041893;28;20291;-66
2022/05/08 03:58:37;;;;;;;7.15;2.00;;;20.20;48.30;19.40;102300.00;;;;5038524;28;20509;-66
2022/05/08 04:01:23;;;;;;;9.82;1.88;;;20.30;48.40;19.40;102302.00;;;;5035942;28;20068;-67
2022/05/08 04:04:09;;;;;;;8.00;2.17;;;20.20;48.30;19.40;102302.00;;;;5037927;28;20048;-66
2022/05/08 04:06:55;;;;;;;8.73;2.40;;;20.30;48.30;19.40;102306.00;;;;5026947;28;20044;-66
2022/05/08 04:09:41;;;;;;;6.38;1.70;;;20.10;48.30;19.40;102305.00;;;;5038235;28;20624;-66
2022/05/08 04:12:27;;;;;;;6.72;1.80;;;20.20;48.40;19.30;102302.00;;;;5036022;28;20041;-66
2022/05/08 04:18:18;;;;;;;6.35;1.88;;;20.10;48.30;19.30;102306.00;;;;5031538;28;20048;-66
2022/05/08 04:21:04;;;;;;;6.35;1.70;;;20.20;48.40;19.30;102307.00;;;;5039061;28;20307;-66
2022/05/08 04:26:54;;;;;;;7.78;2.00;;;20.10;48.40;19.30;102327.00;;;;5039205;28;20060;-66
2022/05/08 04:29:40;;;;;;;8.23;1.95;;;20.10;48.40;19.30;102322.00;;;;5038057;28;20110;-66
2022/05/08 04:32:27;;;;;;;9.05;2.05;;;20.10;48.40;19.30;102325.00;;;;5033644;28;20060;-66
2022/05/08 04:35:13;;;;;;;7.63;2.00;;;20.10;48.50;19.30;102331.00;;;;5037586;28;20045;-66
2022/05/08 04:37:59;;;;;;;7.80;1.63;;;20.00;48.40;19.30;102329.00;;;;5039927;28;20045;-66
2022/05/08 04:40:45;;;;;;;6.97;1.85;;;20.00;48.40;19.30;102335.00;;;;5022561;28;20041;-67
2022/05/08 04:43:31;;;;;;;8.68;1.73;;;20.10;48.50;19.30;102320.00;;;;5038092;28;20039;-66
2022/05/08 04:46:17;;;;;;;6.78;2.17;;;20.00;48.30;19.30;102344.00;;;;5034216;28;20049;-66
2022/05/08 04:49:03;;;;;;;7.38;1.95;;;20.00;48.30;19.30;102341.00;;;;5037836;28;20272;-66
2022/05/08 04:51:49;;;;;;;7.25;2.42;;;20.00;48.30;19.30;102346.00;;;;5018695;28;20090;-66
2022/05/08 04:54:35;;;;;;;8.75;1.90;;;20.00;48.40;19.20;102340.00;;;;5045988;28;20068;-66
2022/05/08 04:57:21;;;;;;;6.88;1.50;;;20.00;48.30;19.20;102351.00;;;;5038292;28;20400;-66
2022/05/08 05:00:08;;;;;;;7.88;2.47;;;20.10;48.30;19.20;102345.00;;;;5036000;28;20061;-66
2022/05/08 05:02:54;;;;;;;8.55;2.03;;;20.00;48.40;19.20;102351.00;;;;5027836;28;20041;-66
2022/05/08 05:05:40;;;;;;;3.53;1.63;;;20.00;48.30;19.20;102346.00;;;;5038547;28;20040;-66
2022/05/08 05:08:26;;;;;;;8.27;1.85;;;20.00;48.30;19.20;102350.00;;;;5041788;28;20526;-66
2022/05/08 05:11:12;;;;;;;7.10;1.98;;;20.00;48.30;19.20;102357.00;;;;5037968;28;20341;-66
2022/05/08 05:13:58;;;;;;;4.80;1.80;;;20.10;48.40;19.20;102361.00;;;;5034979;28;20406;-66
2022/05/08 05:16:46;;;;;;;7.38;1.77;;;20.00;48.30;19.20;102365.00;;;;5036449;28;20040;-66
2022/05/08 05:19:32;;;;;;;10.63;2.15;;;20.00;48.40;19.20;102371.00;;;;5041764;28;20094;-66
2022/05/08 05:22:22;;;;;;;5.05;2.00;;;20.00;48.40;19.20;102360.00;;;;5049905;28;20068;-67
2022/05/08 05:25:09;;;;;;;5.13;1.65;;;20.00;48.40;19.20;102365.00;;;;5025520;28;20045;-66
2022/05/08 05:27:55;;;;;;;8.55;2.28;;;20.00;48.40;19.20;102365.00;;;;5041836;28;20099;-66
2022/05/08 05:30:41;;;;;;;3.78;1.42;;;20.00;48.40;19.20;102371.00;;;;5022951;28;20119;-67
2022/05/08 05:33:27;;;;;;;5.35;1.73;;;20.00;48.50;19.20;102375.00;;;;5039791;28;20048;-66
2022/05/08 05:36:14;;;;;;;6.50;2.05;;;20.00;48.50;19.20;102381.00;;;;5042711;28;20561;-66
2022/05/08 05:39:00;;;;;;;6.82;1.85;;;20.00;48.50;19.20;102371.00;;;;5015663;28;20073;-66
2022/05/08 05:41:46;;;;;;;7.72;1.60;;;20.00;48.50;19.20;102376.00;;;;5040637;28;20560;-66
2022/05/08 05:44:32;;;;;;;4.28;1.55;;;20.00;48.40;19.20;102374.00;;;;5038126;28;20037;-66
2022/05/08 05:47:52;;;;;;;8.75;2.28;;;20.00;48.40;19.20;102375.00;;;;5014707;28;20033;-66
2022/05/08 05:50:30;;;;;;;8.73;1.77;;;20.00;48.40;19.20;102381.00;;;;5033145;28;20153;-66
2022/05/08 05:53:16;;;;;;;5.35;1.85;;;19.90;48.40;19.20;102382.00;;;;5040024;28;20060;-66
2022/05/08 05:56:02;;;;;;;7.40;1.80;;;20.00;48.30;19.20;102395.00;;;;5037717;28;20045;-66
2022/05/08 05:58:48;;;;;;;6.00;1.52;;;20.00;48.30;19.20;102391.00;;;;5033874;28;20099;-66
2022/05/08 06:01:34;;;;;;;6.93;1.80;;;20.00;48.30;19.20;102390.00;;;;5037979;28;20092;-66
2022/05/08 06:04:20;;;;;;;7.13;1.95;;;20.00;48.30;19.20;102396.00;;;;5034557;28;20040;-66
2022/05/08 06:07:06;;;;;;;4.70;1.73;;;20.00;48.20;19.20;102401.00;;;;5034711;28;20148;-66
2022/05/08 06:09:52;;;;;;;6.50;2.05;;;20.00;48.30;19.20;102416.00;;;;5032772;28;20422;-66
2022/05/08 06:12:38;;;;;;;5.90;1.63;;;20.10;48.30;19.20;102404.00;;;;5028464;28;20049;-66
2022/05/08 06:15:24;;;;;;;8.18;1.80;;;20.00;48.20;19.20;102401.00;;;;5034439;28;20037;-66
2022/05/08 06:18:11;;;;;;;7.40;1.83;;;20.00;48.20;19.20;102401.00;;;;5022209;28;20122;-66
2022/05/08 06:20:57;;;;;;;5.40;2.00;;;20.00;48.20;19.20;102413.00;;;;5036898;28;20048;-66
2022/05/08 06:23:43;;;;;;;7.38;1.60;;;20.00;48.10;19.20;102415.00;;;;5033676;28;20042;-66
2022/05/08 06:26:29;;;;;;;7.93;1.70;;;20.10;48.20;19.20;102423.00;;;;5037170;28;20475;-66
2022/05/08 06:29:15;;;;;;;6.25;1.92;;;20.00;48.10;19.20;102418.00;;;;5028401;28;20044;-66
2022/05/08 06:32:03;;;;;;;5.47;1.60;;;20.00;48.10;19.20;102424.00;;;;5031702;28;20127;-66
2022/05/08 06:34:49;;;;;;;5.22;1.27;;;20.00;48.10;19.20;102420.00;;;;5032009;28;20053;-66
2022/05/08 06:37:35;;;;;;;7.90;1.65;;;20.10;48.00;19.20;102419.00;;;;5036521;28;20502;-66
2022/05/08 06:40:21;;;;;;;6.63;1.77;;;20.00;47.90;19.20;102430.00;;;;5038058;28;20046;-66
2022/05/08 06:43:08;;;;;;;8.68;2.15;;;20.00;47.90;19.20;102423.00;;;;5040357;28;20052;-66
2022/05/08 06:45:54;;;;;;;5.28;1.45;;;20.00;47.80;19.20;102429.00;;;;5027372;28;20048;-66
2022/05/08 06:48:40;;;;;;;5.80;1.60;;;20.00;47.70;19.20;102432.00;;;;5041503;28;20041;-66
2022/05/08 06:51:26;;;;;;;4.95;1.58;;;20.00;47.60;19.20;102424.00;;;;5041907;28;20140;-66
2022/05/08 06:54:12;;;;;;;5.75;1.90;;;19.90;47.50;19.20;102431.00;;;;5037887;28;20145;-66
2022/05/08 06:56:59;;;;;;;5.22;1.50;;;20.00;47.50;19.20;102441.00;;;;5036526;28;20037;-66
2022/05/08 07:02:50;;;;;;;4.35;1.40;;;20.00;47.40;19.20;102437.00;;;;5036551;28;20060;-66
2022/05/08 07:05:40;;;;;;;8.80;1.70;;;20.00;47.40;19.20;102437.00;;;;5040586;28;20054;-66
2022/05/08 07:08:26;;;;;;;3.65;1.40;;;20.00;47.30;19.10;102444.00;;;;5042058;28;20045;-66
2022/05/08 07:11:12;;;;;;;5.43;1.75;;;20.10;47.30;19.10;102431.00;;;;5042666;28;20052;-66
2022/05/08 07:13:59;;;;;;;4.25;1.50;;;20.00;47.10;19.10;102439.00;;;;5044264;28;20037;-66
2022/05/08 07:16:45;;;;;;;7.57;1.77;;;20.00;47.10;19.10;102438.00;;;;5020716;28;20034;-66
2022/05/08 07:19:32;;;;;;;7.00;2.15;;;20.10;47.30;19.10;102453.00;;;;5024887;28;20044;-66
2022/05/08 07:22:18;;;;;;;9.43;2.28;;;20.00;47.70;19.10;102439.00;;;;5019730;28;20086;-67
2022/05/08 07:25:05;;;;;;;5.38;1.33;;;20.00;47.00;19.10;102443.00;;;;5046717;28;20037;-67
2022/05/08 07:27:52;;;;;;;7.60;1.50;;;20.00;47.00;19.10;102438.00;;;;5039496;28;20120;-66
2022/05/08 07:30:38;;;;;;;5.30;1.40;;;20.00;46.90;19.10;102438.00;;;;5023294;28;20129;-66
2022/05/08 07:33:24;;;;;;;4.50;1.15;;;20.00;46.90;19.10;102442.00;;;;5032643;28;20041;-66
2022/05/08 07:36:12;;;;;;;7.72;1.95;;;20.00;46.80;19.10;102441.00;;;;5036162;28;20041;-66
2022/05/08 07:38:58;;;;;;;5.68;1.45;;;20.00;46.70;19.10;102447.00;;;;5037276;28;20042;-66
2022/05/08 07:41:45;;;;;;;4.32;1.35;;;20.00;46.70;19.10;102442.00;;;;5037703;28;20045;-66
2022/05/08 07:44:31;;;;;;;4.90;1.15;;;20.00;46.70;19.10;102445.00;;;;5040003;28;20037;-66
2022/05/08 07:47:17;;;;;;;5.85;1.30;;;20.00;46.70;19.10;102447.00;;;;5022903;28;20037;-67
2022/05/08 07:50:03;;;;;;;3.67;1.50;;;20.00;46.80;19.10;102446.00;;;;5023791;28;20495;-66
2022/05/08 07:52:49;;;;;;;4.50;1.27;;;20.00;46.70;19.10;102439.00;;;;5038877;28;20040;-66
2022/05/08 07:55:35;;;;;;;3.83;1.63;;;20.00;46.70;19.10;102449.00;;;;5037241;28;20051;-67
2022/05/08 07:58:22;;;;;;;4.38;1.25;;;20.00;46.70;19.10;102450.00;;;;5038741;28;20406;-66
2022/05/08 08:01:08;;;;;;;6.13;1.27;;;20.00;46.70;19.10;102452.00;;;;5042152;28;20049;-66
2022/05/08 08:03:54;;;;;;;5.97;1.17;;;20.00;46.50;19.10;102448.00;;;;5041760;28;20040;-67
2022/05/08 08:06:40;;;;;;;5.82;1.30;;;20.00;46.70;19.10;102448.00;;;;5042011;28;20048;-66
2022/05/08 08:09:27;;;;;;;3.72;1.38;;;20.00;46.50;19.10;102449.00;;;;5039014;28;20052;-66
2022/05/08 08:12:13;;;;;;;3.75;1.13;;;20.00;46.40;19.10;102451.00;;;;5039123;28;20475;-66
2022/05/08 08:14:59;;;;;;;4.18;1.20;;;20.00;46.40;19.10;102458.00;;;;5030146;28;20095;-66
2022/05/08 08:17:45;;;;;;;6.63;1.50;;;20.00;46.40;19.10;102451.00;;;;5031901;28;20068;-66
2022/05/08 08:20:31;;;;;;;5.47;1.40;;;20.00;46.30;19.10;102449.00;;;;5040804;28;20450;-66
2022/05/08 08:23:18;;;;;;;4.97;1.40;;;20.00;46.30;19.10;102464.00;;;;5044867;28;20037;-68
2022/05/08 08:26:04;;;;;;;6.07;1.48;;;20.10;46.30;19.10;102454.00;;;;5038141;28;20041;-66
2022/05/08 08:28:50;;;;;;;5.93;1.90;;;20.00;46.30;19.10;102453.00;;;;5045513;28;20045;-66
2022/05/08 08:31:36;;;;;;;6.15;1.58;;;20.10;46.30;19.10;102455.00;;;;5045822;28;20172;-66
2022/05/08 08:34:22;;;;;;;4.55;1.10;;;20.10;46.20;19.10;102453.00;;;;5040765;28;20033;-66
2022/05/08 08:37:08;;;;;;;4.70;1.55;;;20.10;46.10;19.10;102460.00;;;;5045828;28;20044;-67
2022/05/08 08:39:54;;;;;;;4.70;1.15;;;20.10;46.10;19.10;102457.00;;;;5027012;28;20180;-66
2022/05/08 08:42:41;;;;;;;6.13;1.70;;;20.00;46.00;19.10;102453.00;;;;5037712;28;20041;-69
2022/05/08 08:48:34;;;;;;;5.35;1.42;;;20.20;46.00;19.10;102467.00;;;;5039733;28;20072;-67
2022/05/08 08:51:20;;;;;;;7.43;1.60;;;20.10;46.00;19.10;102456.00;;;;5013020;28;20414;-66
2022/05/08 08:54:06;;;;;;;3.58;1.17;;;20.10;45.90;19.20;102465.00;;;;5024184;28;20061;-67
2022/05/08 08:56:52;;;;;;;3.92;1.45;;;20.10;46.00;19.10;102466.00;;;;5006801;28;20388;-66
2022/05/08 08:59:38;;;;;;;7.55;1.50;;;20.10;46.00;19.10;102458.00;;;;5037572;28;20562;-67
2022/05/08 09:02:24;;;;;;;3.83;1.45;;;20.10;45.90;19.20;102460.00;;;;5021160;28;20048;-66
2022/05/08 09:05:10;;;;;;;7.15;1.10;;;20.10;45.90;19.10;102460.00;;;;5021075;28;20041;-66
2022/05/08 09:07:58;;;;;;;7.88;1.45;;;20.10;45.70;19.10;102461.00;;;;5037498;28;20037;-66
2022/05/08 09:10:44;;;;;;;7.32;1.85;;;20.10;45.40;19.20;102455.00;;;;5036796;28;20467;-66
2022/05/08 09:13:31;;;;;;;12.75;2.20;;;20.10;45.30;19.10;102459.00;;;;5033207;28;20329;-67
2022/05/08 09:16:17;;;;;;;11.18;1.85;;;20.10;45.50;19.10;102462.00;;;;5021778;28;20049;-66
2022/05/08 09:19:03;;;;;;;11.90;1.92;;;20.10;45.00;19.10;102458.00;;;;5011685;28;20048;-66
2022/05/08 09:21:54;;;;;;;410.23;33.67;;;20.10;44.90;19.10;102464.00;;;;4997839;28;20053;-66
2022/05/08 09:24:54;;;;;;;212.07;16.90;;;20.10;45.00;19.10;102459.00;;;;5008479;28;20080;-66
2022/05/08 09:27:40;;;;;;;226.30;19.67;;;20.10;44.70;19.10;102457.00;;;;5021918;28;20041;-65
2022/05/08 09:30:26;;;;;;;123.53;10.75;;;20.10;44.70;19.10;102455.00;;;;5023016;28;20446;-64
2022/05/08 09:33:42;;;;;;;60.25;5.03;;;20.10;44.80;19.10;102459.00;;;;5036484;28;20049;-65
2022/05/08 09:36:28;;;;;;;70.45;7.68;;;20.10;44.60;19.10;102458.00;;;;5028515;28;20041;-65
2022/05/08 09:39:18;;;;;;;18.58;3.30;;;20.10;44.60;19.10;102461.00;;;;5024809;28;20049;-64
2022/05/08 09:42:04;;;;;;;18.02;2.60;;;20.10;44.60;19.10;102457.00;;;;5020022;28;20255;-64
2022/05/08 09:45:07;;;;;;;11.23;2.00;;;20.10;44.60;19.10;102446.00;;;;5037274;28;20393;-65
2022/05/08 09:47:53;;;;;;;9.43;1.92;;;20.10;45.10;19.00;102456.00;;;;5024084;28;20037;-65
2022/05/08 09:50:39;;;;;;;7.28;1.58;;;20.20;44.20;19.00;102455.00;;;;4996931;28;20032;-65
2022/05/08 09:53:26;;;;;;;5.10;1.98;;;20.20;44.10;19.00;102446.00;;;;5014260;28;20543;-65
2022/05/08 09:56:32;;;;;;;4.40;1.20;;;20.20;44.10;19.00;102446.00;;;;5019307;28;20047;-64
2022/05/08 09:59:21;;;;;;;14.23;1.73;;;20.20;43.90;19.00;102440.00;;;;5037411;28;20040;-65
2022/05/08 10:02:07;;;;;;;7.47;1.33;;;20.10;44.50;19.00;102447.00;;;;5018860;28;20148;-65
2022/05/08 10:04:53;;;;;;;6.60;1.92;;;20.20;43.80;19.00;102443.00;;;;4994866;28;20044;-64
2022/05/08 10:07:39;;;;;;;6.55;1.42;;;20.10;44.10;19.00;102441.00;;;;4990184;28;20064;-65
2022/05/08 10:13:53;;;;;;;49.35;5.53;;;20.20;43.80;19.00;102440.00;;;;5035552;28;20382;-64
2022/05/08 10:16:52;;;;;;;33.80;4.20;;;20.20;43.70;19.00;102447.00;;;;5023277;28;20045;-66
2022/05/08 10:19:45;;;;;;;12.50;2.40;;;20.20;43.80;19.00;102438.00;;;;5025776;28;20291;-65
2022/05/08 10:22:49;;;;;;;22.85;3.33;;;20.20;44.00;19.00;102437.00;;;;5013251;28;20101;-65
2022/05/08 10:25:35;;;;;;;12.20;1.92;;;20.20;44.30;19.00;102436.00;;;;5026833;28;20040;-74
2022/05/08 10:28:21;;;;;;;15.48;1.73;;;20.20;44.10;19.00;102439.00;;;;5008320;28;20451;-66
2022/05/08 10:31:47;;;;;;;5.75;1.50;;;20.20;44.00;19.10;102438.00;;;;5025282;28;20041;-67
2022/05/08 10:34:34;;;;;;;10.38;1.83;;;20.20;44.70;19.10;102436.00;;;;5011758;28;20068;-67
2022/05/08 10:37:25;;;;;;;30.50;2.80;;;20.20;44.00;19.10;102434.00;;;;5023532;28;20072;-66
2022/05/08 10:40:23;;;;;;;28.48;3.10;;;20.20;44.00;19.10;102424.00;;;;5027147;28;20033;-67
2022/05/08 10:43:12;;;;;;;114.43;9.73;;;20.20;44.00;19.10;102433.00;;;;5035751;28;20045;-67
2022/05/08 10:46:19;;;;;;;86.70;7.03;;;20.30;44.00;19.10;102421.00;;;;5028202;28;20091;-67
2022/05/08 10:49:05;;;;;;;359.08;32.10;;;20.30;44.20;19.10;102423.00;;;;5028126;28;20236;-67
2022/05/08 10:51:51;;;;;;;246.05;21.10;;;20.30;44.30;19.20;102424.00;;;;5038987;28;20041;-67
2022/05/08 10:54:37;;;;;;;87.60;9.02;;;20.30;43.90;19.20;102427.00;;;;5021259;28;20049;-67
2022/05/08 10:57:33;;;;;;;104.97;8.68;;;20.40;43.90;19.20;102424.00;;;;5038357;28;20407;-67
2022/05/08 11:00:28;;;;;;;47.75;5.10;;;20.30;43.70;19.20;102421.00;;;;5037350;28;20049;-67
2022/05/08 11:03:21;;;;;;;51.80;6.03;;;20.40;43.90;19.20;102413.00;;;;5028717;28;20036;-67
2022/05/08 11:06:07;;;;;;;25.88;3.08;;;20.40;44.00;19.20;102413.00;;;;5025516;28;20041;-67
2022/05/08 11:08:59;;;;;;;25.60;3.33;;;20.40;43.80;19.20;102422.00;;;;5024120;28;20036;-67
2022/05/08 11:11:45;;;;;;;21.85;2.45;;;20.40;43.60;19.20;102416.00;;;;5033432;28;20142;-66
2022/05/08 11:14:31;;;;;;;19.95;3.00;;;20.40;43.80;19.20;102419.00;;;;5025278;28;20044;-67
2022/05/08 11:17:18;;;;;;;11.88;1.88;;;20.50;43.80;19.20;102423.00;;;;5026327;28;20045;-67
2022/05/08 11:20:05;;;;;;;18.52;2.45;;;20.40;43.70;19.20;102422.00;;;;5026666;28;20528;-66
2022/05/08 11:22:56;;;;;;;6.75;1.42;;;20.40;43.70;19.20;102413.00;;;;5041813;28;20048;-67
2022/05/08 11:26:09;;;;;;;6.63;1.40;;;20.40;43.40;19.20;102415.00;;;;5023667;28;20087;-67
2022/05/08 11:28:55;;;;;;;6.20;1.70;;;20.40;43.40;19.20;102408.00;;;;5025257;28;20454;-67
2022/05/08 11:36:04;;;;;;;4.05;1.20;;;20.50;43.50;19.20;102411.00;;;;5041837;28;20037;-66
2022/05/08 11:38:13;;;;;;;8.55;1.80;;;20.40;43.40;19.20;102402.00;;;;5039186;28;20091;-67
2022/05/08 11:41:01;;;;;;;6.60;1.50;;;20.50;43.40;19.20;102405.00;;;;5034505;28;20050;-67
2022/05/08 11:43:48;;;;;;;4.68;1.25;;;20.50;43.30;19.20;102403.00;;;;5025237;28;20045;-67
2022/05/08 11:46:44;;;;;;;4.38;1.13;;;20.50;43.30;19.20;102391.00;;;;5037480;28;20029;-67
2022/05/08 11:49:30;;;;;;;4.68;1.27;;;20.50;43.40;19.20;102395.00;;;;5034821;28;20033;-66
2022/05/08 11:52:23;;;;;;;6.57;1.37;;;20.50;43.40;19.30;102389.00;;;;5036980;28;20399;-66
2022/05/08 11:55:09;;;;;;;7.93;1.02;;;20.50;43.40;19.30;102384.00;;;;5025684;28;20037;-67
2022/05/08 11:57:55;;;;;;;7.03;1.70;;;20.50;43.60;19.30;102388.00;;;;5039379;28;20045;-67
2022/05/08 12:00:42;;;;;;;4.57;1.30;;;20.40;43.40;19.30;102390.00;;;;5021175;28;20360;-66
2022/05/08 12:03:28;;;;;;;6.35;1.70;;;20.50;43.50;19.30;102394.00;;;;5034068;28;20037;-67
2022/05/08 12:06:14;;;;;;;8.52;1.50;;;20.50;43.20;19.30;102386.00;;;;5037668;28;20064;-67
2022/05/08 12:09:06;;;;;;;7.90;2.05;;;20.40;43.20;19.30;102382.00;;;;5033722;28;20052;-67
2022/05/08 12:11:52;;;;;;;6.88;1.92;;;20.50;43.00;19.30;102381.00;;;;5027081;28;20509;-67
2022/05/08 12:14:39;;;;;;;6.72;1.42;;;20.50;43.00;19.30;102373.00;;;;5036605;28;20041;-67
2022/05/08 12:17:26;;;;;;;4.68;1.33;;;20.50;42.90;19.30;102369.00;;;;5025729;28;20040;-66
2022/05/08 12:20:18;;;;;;;5.53;1.05;;;20.50;42.80;19.30;102360.00;;;;5038645;28;20359;-67
2022/05/08 12:23:06;;;;;;;10.07;1.98;;;20.50;43.00;19.30;102354.00;;;;5026610;28;20107;-67
2022/05/08 12:25:52;;;;;;;3.15;1.13;;;20.50;44.00;19.30;102350.00;;;;4996034;28;20107;-67
2022/05/08 12:28:45;;;;;;;3.00;1.33;;;20.60;43.00;19.30;102350.00;;;;5033911;28;20048;-66
2022/05/08 12:31:31;;;;;;;6.82;1.80;;;20.60;43.00;19.30;102360.00;;;;5023332;28;20037;-67
2022/05/08 12:34:19;;;;;;;15.05;2.33;;;20.60;43.00;19.40;102349.00;;;;5037408;28;20041;-67
2022/05/08 12:37:05;;;;;;;;;;;20.60;43.10;19.40;102345.00;;;;5021693;28;20395;-67
2022/05/08 12:39:51;;;;;;;8.23;1.50;;;20.60;43.50;19.40;102358.00;;;;5034967;28;20230;-67